createdAt,value
2018-07-17T00:01:38.895Z,99.90
2018-07-17T00:04:08.566Z,99.90
2018-07-17T00:06:38.255Z,99.90
2018-07-17T00:09:08.515Z,99.90
2018-07-17T00:11:38.197Z,99.90
2018-07-17T00:14:07.922Z,99.90
2018-07-17T00:16:37.658Z,99.90
2018-07-17T00:19:07.367Z,99.90
2018-07-17T00:21:37.059Z,99.90
2018-07-17T00:24:06.703Z,99.90
2018-07-17T00:26:36.431Z,99.90
2018-07-17T00:29:06.126Z,99.90
2018-07-17T00:31:35.823Z,99.90
2018-07-17T00:34:05.634Z,99.90
2018-07-17T00:36:35.351Z,99.90
2018-07-17T00:39:06.041Z,99.90
2018-07-17T00:41:35.719Z,99.90
2018-07-17T00:44:05.401Z,99.90
2018-07-17T00:46:35.119Z,99.90
2018-07-17T00:49:04.920Z,99.90
2018-07-17T00:51:34.634Z,99.90
2018-07-17T00:54:04.311Z,99.90
2018-07-17T00:56:34.003Z,99.90
2018-07-17T00:59:03.678Z,99.90
2018-07-17T01:01:38.811Z,99.90
2018-07-17T01:06:48.543Z,99.90
2018-07-17T01:09:23.747Z,99.90
2018-07-17T01:11:58.882Z,99.90
2018-07-17T01:14:34.050Z,99.90
2018-07-17T01:17:03.759Z,99.90
2018-07-17T01:19:33.468Z,99.90
2018-07-17T01:22:03.177Z,99.90
2018-07-17T01:24:32.870Z,99.90
2018-07-17T01:27:02.634Z,99.90
2018-07-17T01:29:32.307Z,99.90
2018-07-17T01:32:02.357Z,99.90
2018-07-17T01:37:01.355Z,99.90
2018-07-17T01:39:31.019Z,99.90
2018-07-17T01:42:00.886Z,99.90
2018-07-17T01:44:31.230Z,99.90
2018-07-17T01:47:02.011Z,99.90
2018-07-17T01:49:31.808Z,99.90
2018-07-17T01:52:01.517Z,99.90
2018-07-17T01:54:31.870Z,99.90
2018-07-17T01:57:01.671Z,99.90
2018-07-17T01:59:31.386Z,99.90
2018-07-17T02:02:01.102Z,99.90
2018-07-17T02:09:29.179Z,99.90
2018-07-17T02:11:58.885Z,99.90
2018-07-17T02:14:29.322Z,99.90
2018-07-17T02:16:59.554Z,99.90
2018-07-17T02:19:29.240Z,99.90
2018-07-17T02:21:58.962Z,99.90
2018-07-17T02:24:29.022Z,99.90
2018-07-17T02:26:58.703Z,99.90
2018-07-17T02:31:57.610Z,99.90
2018-07-17T02:34:27.298Z,99.90
2018-07-17T02:36:57.032Z,99.90
2018-07-17T02:39:26.707Z,99.90
2018-07-17T02:41:56.423Z,99.90
2018-07-17T02:44:26.094Z,99.90
2018-07-17T02:46:55.812Z,99.90
2018-07-17T02:49:25.489Z,99.90
2018-07-17T02:51:55.174Z,99.90
2018-07-17T02:54:24.974Z,99.90
2018-07-17T02:56:54.818Z,99.90
2018-07-17T02:59:24.509Z,99.90
2018-07-17T03:01:54.194Z,99.90
2018-07-17T03:04:23.900Z,99.90
2018-07-17T03:06:53.688Z,99.90
2018-07-17T03:09:23.407Z,99.90
2018-07-17T03:11:53.120Z,99.90
2018-07-17T03:14:22.786Z,99.90
2018-07-17T03:16:52.476Z,99.90
2018-07-17T03:19:22.760Z,99.90
2018-07-17T03:21:52.464Z,99.90
2018-07-17T03:24:22.251Z,99.90
2018-07-17T03:26:51.850Z,99.90
2018-07-17T03:29:21.532Z,99.90
2018-07-17T03:31:51.202Z,99.90
2018-07-17T03:34:20.956Z,99.90
2018-07-17T03:36:50.614Z,99.90
2018-07-17T03:39:20.330Z,99.90
2018-07-17T03:41:50.050Z,99.90
2018-07-17T03:44:19.721Z,99.90
2018-07-17T03:46:49.411Z,99.90
2018-07-17T03:49:19.107Z,99.90
2018-07-17T03:51:48.794Z,99.90
2018-07-17T03:54:18.565Z,99.90
2018-07-17T03:56:48.235Z,99.90
2018-07-17T03:59:17.958Z,99.90
2018-07-17T04:01:47.837Z,99.90
2018-07-17T04:04:17.564Z,99.90
2018-07-17T04:09:16.534Z,99.90
2018-07-17T04:11:46.382Z,99.90
2018-07-17T04:14:16.142Z,99.90
2018-07-17T04:16:52.971Z,99.90
2018-07-17T04:19:23.850Z,99.90
2018-07-17T04:21:53.547Z,99.90
2018-07-17T04:24:24.109Z,99.90
2018-07-17T04:26:54.702Z,99.90
2018-07-17T04:29:24.366Z,99.90
2018-07-17T04:31:54.226Z,99.90
2018-07-17T04:34:23.803Z,99.90
2018-07-17T04:36:54.167Z,99.90
2018-07-17T04:39:24.750Z,99.90
2018-07-17T04:41:54.499Z,99.90
2018-07-17T04:44:24.211Z,99.90
2018-07-17T04:46:53.927Z,99.90
2018-07-17T04:49:23.674Z,99.90
2018-07-17T04:51:53.409Z,99.90
2018-07-17T04:54:23.148Z,99.90
2018-07-17T04:56:52.826Z,99.90
2018-07-17T04:59:23.331Z,99.90
2018-07-17T05:01:52.974Z,99.90
2018-07-17T05:04:22.743Z,99.90
2018-07-17T05:06:52.440Z,99.90
2018-07-17T05:09:22.107Z,99.90
2018-07-17T05:11:51.810Z,99.90
2018-07-17T05:14:21.515Z,99.90
2018-07-17T05:16:51.277Z,99.90
2018-07-17T05:19:20.983Z,99.90
2018-07-17T05:21:50.736Z,99.90
2018-07-17T05:24:20.431Z,99.90
2018-07-17T05:26:50.138Z,99.90
2018-07-17T05:29:19.860Z,99.90
2018-07-17T05:31:49.555Z,99.90
2018-07-17T05:34:19.259Z,99.90
2018-07-17T05:39:18.381Z,99.90
2018-07-17T05:41:48.067Z,99.90
2018-07-17T05:44:17.774Z,99.90
2018-07-17T05:46:47.442Z,99.90
2018-07-17T05:49:17.271Z,99.90
2018-07-17T05:54:16.263Z,99.90
2018-07-17T05:56:45.951Z,99.90
2018-07-17T05:59:15.734Z,99.90
2018-07-17T06:01:45.761Z,99.90
2018-07-17T06:04:15.558Z,99.90
2018-07-17T06:06:45.934Z,99.90
2018-07-17T06:09:15.605Z,99.90
2018-07-17T06:11:45.659Z,99.90
2018-07-17T06:14:15.451Z,99.90
2018-07-17T06:16:45.130Z,99.90
2018-07-17T06:19:14.914Z,99.90
2018-07-17T06:21:44.847Z,99.70
2018-07-17T06:24:14.552Z,99.70
2018-07-17T06:26:44.274Z,98.70
2018-07-17T06:29:14.056Z,98.10
2018-07-17T06:31:43.923Z,97.20
2018-07-17T06:34:14.650Z,97.50
2018-07-17T06:36:44.355Z,97.40
2018-07-17T06:39:14.104Z,97.20
2018-07-17T06:41:43.886Z,96.70
2018-07-17T06:44:13.674Z,96.60
2018-07-17T06:46:43.502Z,95.60
2018-07-17T06:49:13.219Z,94.90
2018-07-17T06:51:42.953Z,95.40
2018-07-17T06:54:12.644Z,94.50
2018-07-17T06:56:42.359Z,94.30
2018-07-17T06:59:12.079Z,94.00
2018-07-17T07:01:42.291Z,94.00
2018-07-17T07:04:13.010Z,93.20
2018-07-17T07:06:42.714Z,93.00
2018-07-17T07:09:12.959Z,92.50
2018-07-17T07:11:42.666Z,91.70
2018-07-17T07:14:12.407Z,91.70
2018-07-17T07:16:42.083Z,91.00
2018-07-17T07:19:11.770Z,90.80
2018-07-17T07:21:41.522Z,90.20
2018-07-17T07:24:11.407Z,90.00
2018-07-17T07:26:41.098Z,89.60
2018-07-17T07:29:10.958Z,89.90
2018-07-17T07:31:41.082Z,90.40
2018-07-17T07:34:10.810Z,90.00
2018-07-17T07:36:40.488Z,88.60
2018-07-17T07:39:11.017Z,87.90
2018-07-17T07:41:40.715Z,85.70
2018-07-17T07:44:10.406Z,85.60
2018-07-17T07:46:40.152Z,84.90
2018-07-17T07:49:09.998Z,84.80
2018-07-17T07:51:39.699Z,85.10
2018-07-17T07:54:09.410Z,82.00
2018-07-17T07:56:39.179Z,82.30
2018-07-17T07:59:08.918Z,82.40
2018-07-17T08:01:38.658Z,82.80
2018-07-17T08:04:08.351Z,82.20
2018-07-17T08:06:38.028Z,81.90
2018-07-17T08:09:09.159Z,81.80
2018-07-17T08:11:39.110Z,80.50
2018-07-17T08:14:08.786Z,79.70
2018-07-17T08:16:38.514Z,79.50
2018-07-17T08:19:08.210Z,76.80
2018-07-17T08:21:38.039Z,76.40
2018-07-17T08:24:07.814Z,76.50
2018-07-17T08:26:37.525Z,77.60
2018-07-17T08:29:07.827Z,78.00
2018-07-17T08:31:37.739Z,76.80
2018-07-17T08:34:07.477Z,75.60
2018-07-17T08:36:37.195Z,74.90
2018-07-17T08:39:07.796Z,74.70
2018-07-17T08:41:37.494Z,75.30
2018-07-17T08:44:07.258Z,74.80
2018-07-17T08:46:36.924Z,74.70
2018-07-17T08:49:06.698Z,73.20
2018-07-17T08:51:36.382Z,71.10
2018-07-17T08:54:06.875Z,71.60
2018-07-17T08:56:36.525Z,68.40
2018-07-17T08:59:06.246Z,69.80
2018-07-17T09:01:36.094Z,68.80
2018-07-17T09:04:05.858Z,69.10
2018-07-17T09:06:35.569Z,66.90
2018-07-17T09:09:06.212Z,68.70
2018-07-17T09:11:36.014Z,68.60
2018-07-17T09:14:05.752Z,67.90
2018-07-17T09:16:35.515Z,65.30
2018-07-17T09:19:05.274Z,60.30
2018-07-17T09:21:35.057Z,62.10
2018-07-17T09:24:04.718Z,61.90
2018-07-17T09:26:34.442Z,62.80
2018-07-17T09:29:04.163Z,60.90
2018-07-17T09:31:33.874Z,60.30
2018-07-17T09:34:04.527Z,60.70
2018-07-17T09:36:34.242Z,60.60
2018-07-17T09:39:05.216Z,60.80
2018-07-17T09:41:35.474Z,59.60
2018-07-17T09:44:05.245Z,59.70
2018-07-17T09:46:35.018Z,60.10
2018-07-17T09:49:04.817Z,58.90
2018-07-17T09:51:34.662Z,56.70
2018-07-17T09:54:04.407Z,56.10
2018-07-17T09:56:34.144Z,57.20
2018-07-17T09:59:03.927Z,54.50
2018-07-17T10:01:39.174Z,54.30
2018-07-17T10:04:08.878Z,54.30
2018-07-17T10:06:38.652Z,55.40
2018-07-17T10:09:08.360Z,54.50
2018-07-17T10:11:38.175Z,55.80
2018-07-17T10:14:07.886Z,54.50
2018-07-17T10:16:38.032Z,54.70
2018-07-17T10:19:07.822Z,52.50
2018-07-17T10:21:38.304Z,53.30
2018-07-17T10:24:08.038Z,54.30
2018-07-17T10:26:37.755Z,54.30
2018-07-17T10:29:07.599Z,52.50
2018-07-17T10:31:37.282Z,53.30
2018-07-17T10:34:07.848Z,53.70
2018-07-17T10:36:38.275Z,52.30
2018-07-17T10:39:09.421Z,51.80
2018-07-17T10:41:39.411Z,52.10
2018-07-17T10:44:10.597Z,51.40
2018-07-17T10:46:40.319Z,50.30
2018-07-17T10:49:10.198Z,50.70
2018-07-17T10:51:39.980Z,51.80
2018-07-17T10:54:09.651Z,49.10
2018-07-17T10:56:39.364Z,49.70
2018-07-17T10:59:09.083Z,48.90
2018-07-17T11:01:38.879Z,48.10
2018-07-17T11:04:08.630Z,47.00
2018-07-17T11:06:38.330Z,47.90
2018-07-17T11:09:08.063Z,47.70
2018-07-17T11:11:37.782Z,46.70
2018-07-17T11:14:07.475Z,46.20
2018-07-17T11:16:37.528Z,47.60
2018-07-17T11:19:10.163Z,48.20
2018-07-17T11:21:39.911Z,47.80
2018-07-17T11:24:09.574Z,47.20
2018-07-17T11:26:39.272Z,46.40
2018-07-17T11:29:08.956Z,46.30
2018-07-17T11:31:38.689Z,46.60
2018-07-17T11:34:08.496Z,46.60
2018-07-17T11:36:38.320Z,46.00
2018-07-17T11:39:08.676Z,45.60
2018-07-17T11:41:39.082Z,45.70
2018-07-17T11:44:09.755Z,46.50
2018-07-17T11:46:39.461Z,48.80
2018-07-17T11:49:09.713Z,47.50
2018-07-17T11:51:39.461Z,47.20
2018-07-17T11:54:09.163Z,47.00
2018-07-17T11:59:08.142Z,46.10
2018-07-17T12:01:37.788Z,44.80
2018-07-17T12:06:36.762Z,43.90
2018-07-17T12:09:07.519Z,45.00
2018-07-17T12:11:37.205Z,45.70
2018-07-17T12:14:06.952Z,44.40
2018-07-17T12:16:36.623Z,44.30
2018-07-17T12:19:06.343Z,44.20
2018-07-17T12:21:36.706Z,45.20
2018-07-17T12:24:06.460Z,46.90
2018-07-17T12:26:36.131Z,49.10
2018-07-17T12:29:05.872Z,50.10
2018-07-17T12:31:35.606Z,46.80
2018-07-17T12:34:07.011Z,46.30
2018-07-17T12:36:36.744Z,46.50
2018-07-17T12:39:08.789Z,46.00
2018-07-17T12:41:38.524Z,46.50
2018-07-17T12:44:09.384Z,46.20
2018-07-17T12:46:40.538Z,46.70
2018-07-17T12:49:12.297Z,46.60
2018-07-17T12:52:00.987Z,49.00
2018-07-17T12:54:38.781Z,50.00
2018-07-17T12:57:09.182Z,50.70
2018-07-17T12:59:38.871Z,54.30
2018-07-17T13:02:08.868Z,56.20
2018-07-17T13:04:38.571Z,55.40
2018-07-17T13:07:08.246Z,54.30
2018-07-17T13:09:37.967Z,54.40
2018-07-17T13:12:07.671Z,53.80
2018-07-17T13:14:37.359Z,52.80
2018-07-17T13:17:07.410Z,53.50
2018-07-17T13:19:38.026Z,52.10
2018-07-17T13:22:07.791Z,51.20
2018-07-17T13:24:37.515Z,52.10
2018-07-17T13:27:07.513Z,49.80
2018-07-17T13:29:37.207Z,49.20
2018-07-17T13:32:06.929Z,48.60
2018-07-17T13:37:06.671Z,50.90
2018-07-17T13:39:36.383Z,51.40
2018-07-17T13:42:07.222Z,51.40
2018-07-17T13:44:37.126Z,51.20
2018-07-17T13:47:06.762Z,50.00
2018-07-17T13:49:36.474Z,50.30
2018-07-17T13:52:06.457Z,50.80
2018-07-17T13:54:36.174Z,51.10
2018-07-17T13:57:06.087Z,51.10
2018-07-17T13:59:35.791Z,51.30
2018-07-17T14:02:05.891Z,48.20
2018-07-17T14:04:36.016Z,49.10
2018-07-17T14:07:05.766Z,49.50
2018-07-17T14:09:35.745Z,47.70
2018-07-17T14:12:06.054Z,44.60
2018-07-17T14:14:35.772Z,45.70
2018-07-17T14:17:05.965Z,48.00
2018-07-17T14:19:35.676Z,48.10
2018-07-17T14:22:05.528Z,49.60
2018-07-17T14:24:35.239Z,50.40
2018-07-17T14:27:04.975Z,51.40
2018-07-17T14:29:34.724Z,52.60
2018-07-17T14:32:04.491Z,54.20
2018-07-17T14:34:34.196Z,55.40
2018-07-17T14:37:03.938Z,55.80
2018-07-17T14:39:34.839Z,56.70
2018-07-17T14:42:04.675Z,57.20
2018-07-17T14:44:34.447Z,58.00
2018-07-17T14:47:04.175Z,58.80
2018-07-17T14:49:33.867Z,58.40
2018-07-17T14:52:03.648Z,57.90
2018-07-17T14:54:33.342Z,57.40
2018-07-17T14:57:03.083Z,59.70
2018-07-17T15:02:02.004Z,68.30
2018-07-17T15:04:31.733Z,70.10
2018-07-17T15:07:01.442Z,70.80
2018-07-17T15:09:31.171Z,73.70
2018-07-17T15:14:30.062Z,81.50
2018-07-17T15:16:59.890Z,84.20
2018-07-17T15:19:29.570Z,84.20
2018-07-17T15:21:59.331Z,84.80
2018-07-17T15:24:29.063Z,86.70
2018-07-17T15:26:58.752Z,85.70
2018-07-17T15:29:29.178Z,78.30
2018-07-17T15:31:59.057Z,68.80
2018-07-17T15:34:28.630Z,58.10
2018-07-17T15:36:58.343Z,51.70
2018-07-17T15:39:28.022Z,46.70
2018-07-17T15:41:57.763Z,45.30
2018-07-17T15:44:27.515Z,41.70
2018-07-17T15:46:57.259Z,37.50
2018-07-17T15:49:27.668Z,36.70
2018-07-17T15:51:57.424Z,35.80
2018-07-17T15:54:27.150Z,36.00
2018-07-17T15:56:56.838Z,36.30
2018-07-17T15:59:26.535Z,37.00
2018-07-17T16:01:56.249Z,36.70
2018-07-17T16:04:25.978Z,38.10
2018-07-17T16:06:55.979Z,39.00
2018-07-17T16:09:25.743Z,39.40
2018-07-17T16:11:55.451Z,42.50
2018-07-17T16:14:25.588Z,43.50
2018-07-17T16:16:55.004Z,43.90
2018-07-17T16:19:24.726Z,45.40
2018-07-17T16:21:54.422Z,46.10
2018-07-17T16:24:24.155Z,47.30
2018-07-17T16:26:55.012Z,47.80
2018-07-17T16:29:24.773Z,48.40
2018-07-17T16:31:55.503Z,50.10
2018-07-17T16:34:25.513Z,50.70
2018-07-17T16:36:55.256Z,50.50
2018-07-17T16:39:25.035Z,51.40
2018-07-17T16:41:54.730Z,51.70
2018-07-17T16:44:24.595Z,51.30
2018-07-17T16:46:54.399Z,50.50
2018-07-17T16:49:24.300Z,49.30
2018-07-17T16:51:54.196Z,50.00
2018-07-17T16:54:24.008Z,51.00
2018-07-17T16:56:53.728Z,50.60
2018-07-17T16:59:23.536Z,52.00
2018-07-17T17:01:53.224Z,53.10
2018-07-17T17:04:22.919Z,53.60
2018-07-17T17:06:53.528Z,54.70
2018-07-17T17:09:23.232Z,55.90
2018-07-17T17:11:53.074Z,56.20
2018-07-17T17:14:23.058Z,56.90
2018-07-17T17:16:53.923Z,57.70
2018-07-17T17:19:23.643Z,57.80
2018-07-17T17:21:53.428Z,58.40
2018-07-17T17:24:23.405Z,58.70
2018-07-17T17:26:53.838Z,59.40
2018-07-17T17:29:23.710Z,62.80
2018-07-17T17:31:53.557Z,69.40
2018-07-17T17:34:23.512Z,85.80
2018-07-17T17:36:53.272Z,95.20
2018-07-17T17:39:23.151Z,99.90
2018-07-17T17:41:52.890Z,99.90
2018-07-17T17:44:22.646Z,99.90
2018-07-17T17:46:52.539Z,99.90
2018-07-17T17:49:22.274Z,99.90
2018-07-17T17:51:52.826Z,99.90
2018-07-17T17:54:22.600Z,99.90
2018-07-17T17:56:52.584Z,99.90
2018-07-17T17:59:22.482Z,99.90
2018-07-17T18:01:52.294Z,99.90
2018-07-17T18:04:22.099Z,99.90
2018-07-17T18:06:51.809Z,99.90
2018-07-17T18:09:21.670Z,99.90
2018-07-17T18:11:51.443Z,99.90
2018-07-17T18:14:21.242Z,99.90
2018-07-17T18:16:50.959Z,99.90
2018-07-17T18:19:20.764Z,99.90
2018-07-17T18:21:50.631Z,99.90
2018-07-17T18:24:20.350Z,99.90
2018-07-17T18:26:50.486Z,99.90
2018-07-17T18:29:20.275Z,99.90
2018-07-17T18:31:50.635Z,99.90
2018-07-17T18:34:20.449Z,99.90
2018-07-17T18:36:51.689Z,99.90
2018-07-17T18:39:22.287Z,99.90
2018-07-17T18:41:53.720Z,99.90
2018-07-17T18:44:23.985Z,99.90
2018-07-17T18:46:54.013Z,99.90
2018-07-17T18:49:23.854Z,99.90
2018-07-17T18:51:53.653Z,99.90
2018-07-17T18:54:23.556Z,99.90
2018-07-17T18:56:53.347Z,99.90
2018-07-17T18:59:23.190Z,99.90
2018-07-17T19:01:53.499Z,99.90
2018-07-17T19:04:23.287Z,99.90
2018-07-17T19:06:53.081Z,99.90
2018-07-17T19:09:22.876Z,99.90
2018-07-17T19:11:52.748Z,99.90
2018-07-17T19:14:22.557Z,99.90
2018-07-17T19:16:52.478Z,99.90
2018-07-17T19:19:22.548Z,99.90
2018-07-17T19:21:52.247Z,99.90
2018-07-17T19:24:22.077Z,99.90
2018-07-17T19:29:21.067Z,99.90
2018-07-17T19:31:50.802Z,99.90
2018-07-17T19:34:20.524Z,99.90
2018-07-17T19:36:50.255Z,99.90
2018-07-17T19:39:19.996Z,99.90
2018-07-17T19:41:49.834Z,99.90
2018-07-17T19:44:19.728Z,99.90
2018-07-17T19:46:49.455Z,99.90
2018-07-17T19:49:19.406Z,99.90
2018-07-17T19:51:49.238Z,99.90
2018-07-17T19:54:19.105Z,99.90
2018-07-17T19:56:48.968Z,99.90
2018-07-17T19:59:18.713Z,99.90
2018-07-17T20:01:48.611Z,99.90
2018-07-17T20:04:18.454Z,99.90
2018-07-17T20:06:48.257Z,99.90
2018-07-17T20:09:18.144Z,99.90
2018-07-17T20:11:47.916Z,99.90
2018-07-17T20:14:17.683Z,99.90
2018-07-17T20:16:48.238Z,99.90
2018-07-17T20:19:18.851Z,99.90
2018-07-17T20:21:48.682Z,99.90
2018-07-17T20:24:18.758Z,99.90
2018-07-17T20:26:48.690Z,99.90
2018-07-17T20:29:18.592Z,99.90
2018-07-17T20:31:48.359Z,99.90
2018-07-17T20:34:18.357Z,99.90
2018-07-17T20:36:48.484Z,99.90
2018-07-17T20:39:18.217Z,99.90
2018-07-17T20:41:47.987Z,99.90
2018-07-17T20:44:17.771Z,99.90
2018-07-17T20:46:47.564Z,99.90
2018-07-17T20:49:17.227Z,99.90
2018-07-17T20:51:47.008Z,99.90
2018-07-17T20:54:16.748Z,99.90
2018-07-17T20:59:15.708Z,99.90
2018-07-17T21:01:45.471Z,99.90
2018-07-17T21:04:15.215Z,99.90
2018-07-17T21:06:45.132Z,99.90
2018-07-17T21:09:14.879Z,99.90
2018-07-17T21:11:44.834Z,99.90
2018-07-17T21:14:15.448Z,99.90
2018-07-17T21:16:46.635Z,99.90
2018-07-17T21:19:16.375Z,99.90
2018-07-17T21:21:46.118Z,99.90
2018-07-17T21:24:15.867Z,99.90
2018-07-17T21:26:45.594Z,99.90
2018-07-17T21:29:15.426Z,99.90
2018-07-17T21:31:45.150Z,99.90
2018-07-17T21:34:15.006Z,99.90
2018-07-17T21:36:44.753Z,99.90
2018-07-17T21:39:14.568Z,99.90
2018-07-17T21:41:44.318Z,99.90
2018-07-17T21:44:14.107Z,99.90
2018-07-17T21:46:43.880Z,99.90
2018-07-17T21:49:13.635Z,99.90
2018-07-17T21:51:43.338Z,99.90
2018-07-17T21:54:13.222Z,99.90
2018-07-17T21:56:43.583Z,99.90
2018-07-17T21:59:13.418Z,99.90
2018-07-17T22:01:43.385Z,99.90
2018-07-17T22:04:13.422Z,99.90
2018-07-17T22:06:43.190Z,99.90
2018-07-17T22:09:13.814Z,99.90
2018-07-17T22:11:44.156Z,99.90
2018-07-17T22:14:13.878Z,99.90
2018-07-17T22:16:43.711Z,99.90
2018-07-17T22:19:13.435Z,99.90
2018-07-17T22:21:43.159Z,99.90
2018-07-17T22:24:12.927Z,99.90
2018-07-17T22:26:42.656Z,99.90
2018-07-17T22:29:12.370Z,99.90
2018-07-17T22:31:42.091Z,99.90
2018-07-17T22:34:12.322Z,99.90
2018-07-17T22:36:42.047Z,99.90
2018-07-17T22:39:11.766Z,99.90
2018-07-17T22:41:41.631Z,99.90
2018-07-17T22:44:12.380Z,99.90
2018-07-17T22:46:42.056Z,99.90
2018-07-17T22:49:16.039Z,99.90
2018-07-17T22:51:45.760Z,99.90
2018-07-17T22:54:15.464Z,99.90
2018-07-17T22:56:45.230Z,99.90
2018-07-17T22:59:15.089Z,99.90
2018-07-17T23:01:44.981Z,99.90
2018-07-17T23:04:14.702Z,99.90
2018-07-17T23:06:44.392Z,99.90
2018-07-17T23:09:14.131Z,99.90
2018-07-17T23:11:43.806Z,99.90
2018-07-17T23:14:13.515Z,99.90
2018-07-17T23:16:43.197Z,99.90
2018-07-17T23:19:13.934Z,99.90
2018-07-17T23:21:43.667Z,99.90
2018-07-17T23:24:13.370Z,99.90
2018-07-17T23:26:43.059Z,99.90
2018-07-17T23:29:12.761Z,99.90
2018-07-17T23:31:43.597Z,99.90
2018-07-17T23:34:13.318Z,99.90
2018-07-17T23:36:43.129Z,99.90
2018-07-17T23:39:12.849Z,99.90
2018-07-17T23:41:42.601Z,99.90
2018-07-17T23:44:12.299Z,99.90
2018-07-17T23:46:42.035Z,99.90
2018-07-17T23:49:17.187Z,99.90
2018-07-17T23:51:46.899Z,99.90
2018-07-17T23:54:16.633Z,99.90
2018-07-17T23:56:46.382Z,99.90
2018-07-17T23:59:16.044Z,99.90
